createdAt,value
2022-08-16T00:01:24.826Z,9.85
2022-08-16T00:06:20.938Z,9.38
2022-08-16T00:08:47.636Z,9.20
2022-08-16T00:11:15.838Z,8.65
2022-08-16T00:13:53.526Z,8.77
2022-08-16T00:17:00.692Z,8.00
2022-08-16T00:19:18.828Z,8.70
2022-08-16T00:21:46.438Z,8.75
2022-08-16T00:24:32.584Z,8.85
2022-08-16T00:27:01.671Z,9.30
2022-08-16T00:29:29.591Z,9.82
2022-08-16T00:32:00.819Z,11.00
2022-08-16T00:34:44.087Z,10.00
2022-08-16T00:37:17.054Z,10.75
2022-08-16T00:39:45.768Z,10.63
2022-08-16T00:42:14.789Z,11.45
2022-08-16T00:45:06.643Z,12.80
2022-08-16T00:47:36.953Z,12.90
2022-08-16T00:50:05.041Z,13.27
2022-08-16T00:52:38.439Z,14.07
2022-08-16T00:55:12.666Z,13.48
2022-08-16T00:57:59.507Z,13.23
2022-08-16T01:00:28.720Z,12.68
2022-08-16T01:03:00.979Z,12.23
2022-08-16T01:05:29.040Z,11.80
2022-08-16T01:07:57.319Z,11.98
2022-08-16T01:10:32.735Z,11.80
2022-08-16T01:13:12.493Z,11.88
2022-08-16T01:15:47.598Z,11.48
2022-08-16T01:18:40.821Z,10.85
2022-08-16T01:21:22.200Z,10.98
2022-08-16T01:24:51.806Z,10.68
2022-08-16T01:27:09.575Z,11.27
2022-08-16T01:30:20.487Z,10.38
2022-08-16T01:33:01.805Z,10.55
2022-08-16T01:35:44.230Z,10.38
2022-08-16T01:38:31.739Z,9.80
2022-08-16T01:41:19.205Z,9.80
2022-08-16T01:43:53.428Z,9.35
2022-08-16T01:46:39.523Z,9.18
2022-08-16T01:49:16.800Z,9.40
2022-08-16T01:51:48.777Z,9.18
2022-08-16T01:54:30.530Z,9.45
2022-08-16T01:57:01.719Z,9.13
2022-08-16T01:59:30.114Z,8.63
2022-08-16T02:02:00.091Z,8.63
2022-08-16T02:04:29.887Z,9.30
2022-08-16T02:07:15.738Z,9.13
2022-08-16T02:09:43.377Z,9.77
2022-08-16T02:12:39.848Z,9.20
2022-08-16T02:15:11.733Z,8.82
2022-08-16T02:17:38.556Z,8.13
2022-08-16T02:20:11.792Z,9.00
2022-08-16T02:22:38.863Z,9.17
2022-08-16T02:25:10.388Z,8.80
2022-08-16T02:27:41.198Z,8.63
2022-08-16T02:30:36.897Z,9.05
2022-08-16T02:33:03.224Z,8.95
2022-08-16T02:35:30.255Z,8.63
2022-08-16T02:37:56.763Z,9.40
2022-08-16T02:40:29.045Z,8.80
2022-08-16T02:42:56.537Z,9.32
2022-08-16T02:45:27.808Z,8.85
2022-08-16T02:48:00.145Z,8.75
2022-08-16T02:50:55.562Z,8.20
2022-08-16T02:53:23.408Z,9.20
2022-08-16T02:55:50.699Z,8.57
2022-08-16T02:58:17.543Z,8.85
2022-08-16T03:00:45.621Z,9.05
2022-08-16T03:05:52.218Z,8.27
2022-08-16T03:08:52.026Z,8.95
2022-08-16T03:11:17.982Z,8.50
2022-08-16T03:13:53.212Z,8.40
2022-08-16T03:16:37.816Z,8.75
2022-08-16T03:19:08.280Z,8.23
2022-08-16T03:21:38.288Z,8.85
2022-08-16T03:24:28.265Z,8.68
2022-08-16T03:26:58.210Z,8.80
2022-08-16T03:29:30.053Z,8.98
2022-08-16T03:31:59.323Z,8.77
2022-08-16T03:34:26.774Z,8.60
2022-08-16T03:36:53.879Z,8.13
2022-08-16T03:39:20.674Z,8.38
2022-08-16T03:41:50.686Z,8.52
2022-08-16T03:44:43.895Z,8.80
2022-08-16T03:47:09.987Z,8.93
2022-08-16T03:49:37.597Z,8.48
2022-08-16T03:52:05.197Z,8.90
2022-08-16T03:54:31.692Z,8.85
2022-08-16T03:56:58.914Z,8.85
2022-08-16T03:59:25.721Z,8.00
2022-08-16T04:01:56.035Z,8.13
2022-08-16T04:04:33.614Z,9.00
2022-08-16T04:07:03.398Z,8.38
2022-08-16T04:09:35.353Z,8.95
2022-08-16T04:12:04.885Z,8.32
2022-08-16T04:14:38.665Z,9.23
2022-08-16T04:17:15.418Z,10.68
2022-08-16T04:19:45.618Z,10.68
2022-08-16T04:22:13.398Z,11.27
2022-08-16T04:24:39.886Z,10.13
2022-08-16T04:27:08.910Z,8.45
2022-08-16T04:29:43.933Z,8.95
2022-08-16T04:32:13.832Z,8.60
2022-08-16T04:34:40.735Z,8.90
2022-08-16T04:37:07.672Z,8.75
2022-08-16T04:39:37.179Z,9.05
2022-08-16T04:42:17.502Z,8.85
2022-08-16T04:44:53.449Z,8.82
2022-08-16T04:47:32.939Z,8.45
2022-08-16T04:50:00.749Z,9.43
2022-08-16T04:52:34.581Z,8.85
2022-08-16T04:55:08.213Z,9.10
2022-08-16T05:00:32.492Z,9.73
2022-08-16T05:02:55.524Z,9.23
2022-08-16T05:05:23.311Z,9.43
2022-08-16T05:07:58.580Z,9.93
2022-08-16T05:10:29.556Z,9.75
2022-08-16T05:13:00.131Z,9.40
2022-08-16T05:15:27.990Z,9.63
2022-08-16T05:17:58.598Z,9.95
2022-08-16T05:20:38.712Z,9.90
2022-08-16T05:23:13.711Z,10.00
2022-08-16T05:25:48.502Z,10.00
2022-08-16T05:28:17.349Z,10.40
2022-08-16T05:30:45.287Z,10.18
2022-08-16T05:35:54.629Z,10.88
2022-08-16T05:38:32.640Z,11.23
2022-08-16T05:41:05.843Z,10.25
2022-08-16T05:43:43.649Z,11.82
2022-08-16T05:46:29.442Z,11.50
2022-08-16T05:49:06.018Z,12.80
2022-08-16T05:51:38.553Z,12.60
2022-08-16T05:54:07.213Z,13.73
2022-08-16T05:56:34.252Z,13.65
2022-08-16T05:59:06.397Z,13.38
2022-08-16T06:01:38.135Z,14.50
2022-08-16T06:04:13.643Z,13.77
2022-08-16T06:06:56.008Z,14.18
2022-08-16T06:09:25.802Z,14.40
2022-08-16T06:12:10.176Z,13.30
2022-08-16T06:14:37.522Z,14.10
2022-08-16T06:17:09.158Z,14.85
2022-08-16T06:19:44.601Z,16.08
2022-08-16T06:22:11.292Z,16.15
2022-08-16T06:24:57.814Z,15.82
2022-08-16T06:27:24.493Z,15.02
2022-08-16T06:29:51.835Z,14.70
2022-08-16T06:32:27.538Z,14.30
2022-08-16T06:35:02.146Z,14.27
2022-08-16T06:37:37.598Z,14.90
2022-08-16T06:40:12.988Z,15.18
2022-08-16T06:42:47.588Z,14.85
2022-08-16T06:45:15.235Z,14.43
2022-08-16T06:47:54.445Z,14.10
2022-08-16T06:50:28.850Z,13.80
2022-08-16T06:53:09.043Z,14.00
2022-08-16T06:55:38.429Z,13.25
2022-08-16T06:58:08.354Z,14.05
2022-08-16T07:00:37.807Z,12.98
2022-08-16T07:03:28.043Z,13.73
2022-08-16T07:05:54.412Z,13.20
2022-08-16T07:08:20.958Z,12.18
2022-08-16T07:10:47.416Z,12.32
2022-08-16T07:13:16.661Z,12.95
2022-08-16T07:15:59.400Z,13.15
2022-08-16T07:18:26.797Z,14.45
2022-08-16T07:20:53.823Z,13.90
2022-08-16T07:23:21.667Z,13.95
2022-08-16T07:26:05.608Z,13.32
2022-08-16T07:28:32.517Z,13.38
2022-08-16T07:31:01.914Z,12.27
2022-08-16T07:33:51.326Z,13.00
2022-08-16T07:36:21.908Z,11.27
2022-08-16T07:38:49.105Z,11.85
2022-08-16T07:41:16.925Z,10.98
2022-08-16T07:43:43.953Z,10.85
2022-08-16T07:46:37.457Z,10.65
2022-08-16T07:49:02.629Z,11.15
2022-08-16T07:51:34.709Z,11.05
2022-08-16T07:54:09.390Z,10.13
2022-08-16T07:56:37.515Z,10.98
2022-08-16T07:59:05.558Z,9.73
2022-08-16T08:01:32.851Z,9.68
2022-08-16T08:04:02.915Z,9.95
2022-08-16T08:06:32.354Z,10.18
2022-08-16T08:09:00.201Z,10.25
2022-08-16T08:11:29.616Z,9.57
2022-08-16T08:14:03.073Z,9.73
2022-08-16T08:16:31.765Z,9.70
2022-08-16T08:19:02.790Z,9.27
2022-08-16T08:21:58.493Z,8.37
2022-08-16T08:24:17.884Z,9.15
2022-08-16T08:26:44.496Z,9.13
2022-08-16T08:29:16.741Z,7.60
2022-08-16T08:31:49.729Z,7.18
2022-08-16T08:34:18.686Z,7.35
2022-08-16T08:36:45.323Z,7.00
2022-08-16T08:39:12.532Z,6.72
2022-08-16T08:41:40.460Z,7.03
2022-08-16T08:44:29.465Z,7.25
2022-08-16T08:47:00.250Z,7.57
2022-08-16T08:49:46.278Z,7.20
2022-08-16T08:52:34.684Z,7.10
2022-08-16T08:55:10.631Z,6.30
2022-08-16T08:57:39.749Z,6.25
2022-08-16T09:00:13.723Z,6.60
2022-08-16T09:02:45.539Z,6.00
2022-08-16T09:05:20.729Z,6.65
2022-08-16T09:08:00.563Z,5.72
2022-08-16T09:10:29.274Z,5.63
2022-08-16T09:12:55.971Z,4.90
2022-08-16T09:15:23.984Z,5.07
2022-08-16T09:17:55.864Z,5.00
2022-08-16T09:22:52.423Z,4.60
2022-08-16T09:25:25.794Z,4.78
2022-08-16T09:27:56.715Z,4.82
2022-08-16T09:30:34.578Z,4.72
2022-08-16T09:33:10.136Z,4.18
2022-08-16T09:35:38.651Z,4.40
2022-08-16T09:38:05.430Z,4.65
2022-08-16T09:40:42.683Z,4.35
2022-08-16T09:43:37.683Z,3.70
2022-08-16T09:46:45.991Z,3.65
2022-08-16T09:48:56.369Z,3.97
2022-08-16T09:51:26.222Z,3.90
2022-08-16T09:53:57.525Z,4.32
2022-08-16T09:56:28.739Z,3.97
2022-08-16T09:59:04.837Z,3.80
2022-08-16T10:01:34.522Z,3.67
2022-08-16T10:04:04.234Z,4.55
2022-08-16T10:06:34.233Z,6.18
2022-08-16T10:09:05.012Z,6.03
2022-08-16T10:11:52.283Z,5.65
2022-08-16T10:14:19.935Z,6.22
2022-08-16T10:16:51.224Z,7.57
2022-08-16T10:19:27.810Z,9.38
2022-08-16T10:21:58.251Z,8.35
2022-08-16T10:24:28.644Z,7.93
2022-08-16T10:27:17.690Z,8.02
2022-08-16T10:30:00.359Z,8.30
2022-08-16T10:32:30.633Z,8.70
2022-08-16T10:34:59.320Z,7.93
2022-08-16T10:37:32.489Z,7.60
2022-08-16T10:40:06.001Z,7.28
2022-08-16T10:42:32.521Z,6.55
2022-08-16T10:44:59.816Z,7.90
2022-08-16T10:47:26.576Z,7.50
2022-08-16T10:49:59.384Z,7.00
2022-08-16T10:52:26.405Z,7.47
2022-08-16T10:55:40.277Z,7.45
2022-08-16T10:57:46.921Z,6.78
2022-08-16T11:00:20.851Z,7.43
2022-08-16T11:02:59.932Z,7.75
2022-08-16T11:05:58.663Z,6.63
2022-08-16T11:08:16.248Z,6.13
2022-08-16T11:11:04.821Z,6.40
2022-08-16T11:17:00.738Z,6.15
2022-08-16T11:19:11.853Z,5.15
2022-08-16T11:24:41.871Z,5.22
2022-08-16T11:27:23.191Z,5.70
2022-08-16T11:29:53.062Z,4.45
2022-08-16T11:32:29.995Z,5.13
2022-08-16T11:35:16.007Z,4.97
2022-08-16T11:38:50.692Z,5.22
2022-08-16T11:40:57.265Z,5.00
2022-08-16T11:43:29.254Z,4.40
2022-08-16T11:45:57.814Z,4.43
2022-08-16T11:48:30.541Z,4.65
2022-08-16T11:50:57.656Z,4.25
2022-08-16T11:53:24.831Z,4.18
2022-08-16T11:55:55.358Z,4.40
2022-08-16T11:58:24.564Z,3.95
2022-08-16T12:00:53.361Z,3.60
2022-08-16T12:03:34.622Z,4.20
2022-08-16T12:08:37.361Z,4.00
2022-08-16T12:11:05.625Z,4.45
2022-08-16T12:13:33.902Z,4.45
2022-08-16T12:16:00.320Z,3.72
2022-08-16T12:18:27.979Z,4.00
2022-08-16T12:20:55.280Z,3.70
2022-08-16T12:23:24.709Z,4.20
2022-08-16T12:25:51.132Z,4.63
2022-08-16T12:28:36.819Z,4.40
2022-08-16T12:31:05.600Z,4.45
2022-08-16T12:33:32.768Z,4.82
2022-08-16T12:36:13.154Z,4.43
2022-08-16T12:38:48.011Z,4.60
2022-08-16T12:41:25.144Z,4.30
2022-08-16T12:43:52.602Z,4.10
2022-08-16T12:46:25.097Z,4.40
2022-08-16T12:48:57.854Z,4.78
2022-08-16T12:51:57.626Z,4.68
2022-08-16T12:54:18.912Z,4.88
2022-08-16T12:56:46.830Z,4.60
2022-08-16T12:59:19.893Z,4.60
2022-08-16T13:01:48.099Z,4.32
2022-08-16T13:04:20.364Z,4.50
2022-08-16T13:06:50.075Z,5.23
2022-08-16T13:09:28.833Z,4.70
2022-08-16T13:12:16.536Z,4.75
2022-08-16T13:14:44.662Z,4.95
2022-08-16T13:17:18.835Z,4.50
2022-08-16T13:22:35.385Z,4.97
2022-08-16T13:25:02.258Z,4.90
2022-08-16T13:28:03.053Z,5.30
2022-08-16T13:30:36.537Z,5.20
2022-08-16T13:33:12.292Z,5.53
2022-08-16T13:35:46.449Z,5.60
2022-08-16T13:38:24.966Z,6.13
2022-08-16T13:40:57.406Z,5.63
2022-08-16T13:43:26.364Z,6.78
2022-08-16T13:45:55.334Z,7.97
2022-08-16T13:48:25.393Z,6.70
2022-08-16T13:50:54.589Z,8.75
2022-08-16T13:53:24.299Z,7.00
2022-08-16T13:55:58.704Z,6.60
2022-08-16T13:58:36.716Z,7.30
2022-08-16T14:01:09.422Z,8.13
2022-08-16T14:03:37.152Z,9.18
2022-08-16T14:06:03.758Z,7.70
2022-08-16T14:08:30.450Z,8.30
2022-08-16T14:10:56.935Z,10.18
2022-08-16T14:13:23.966Z,9.57
2022-08-16T14:15:50.789Z,10.35
2022-08-16T14:18:20.515Z,9.15
2022-08-16T14:20:48.504Z,10.55
2022-08-16T14:23:16.129Z,11.27
2022-08-16T14:25:53.558Z,13.15
2022-08-16T14:28:23.577Z,12.85
2022-08-16T14:30:53.913Z,12.77
2022-08-16T14:33:20.551Z,10.95
2022-08-16T14:35:50.649Z,10.75
2022-08-16T14:38:19.091Z,11.55
2022-08-16T14:40:55.214Z,10.50
2022-08-16T14:43:23.672Z,12.93
2022-08-16T14:45:50.368Z,12.38
2022-08-16T14:48:25.103Z,12.52
2022-08-16T14:50:52.688Z,11.68
2022-08-16T14:53:19.313Z,11.57
2022-08-16T14:55:46.088Z,11.95
2022-08-16T14:58:18.823Z,11.77
2022-08-16T15:00:47.705Z,11.55
2022-08-16T15:03:18.628Z,12.32
2022-08-16T15:05:48.264Z,12.30
2022-08-16T15:08:17.012Z,13.63
2022-08-16T15:10:45.687Z,14.30
2022-08-16T15:13:13.717Z,14.05
2022-08-16T15:15:43.188Z,12.93
2022-08-16T15:18:12.012Z,12.50
2022-08-16T15:20:40.515Z,13.50
2022-08-16T15:23:08.940Z,14.35
2022-08-16T15:25:44.869Z,12.63
2022-08-16T15:28:30.573Z,12.88
2022-08-16T15:31:03.403Z,14.07
2022-08-16T15:33:33.323Z,14.93
2022-08-16T15:36:00.376Z,12.82
2022-08-16T15:38:55.292Z,12.30
2022-08-16T15:41:43.058Z,14.30
2022-08-16T15:44:21.182Z,13.57
2022-08-16T15:46:55.805Z,13.00
2022-08-16T15:49:36.915Z,14.43
2022-08-16T15:52:20.462Z,14.93
2022-08-16T15:54:53.613Z,14.10
2022-08-16T15:57:28.046Z,15.35
2022-08-16T16:00:04.888Z,15.57
2022-08-16T16:02:42.608Z,14.45
2022-08-16T16:05:10.155Z,17.30
2022-08-16T16:07:37.584Z,17.52
2022-08-16T16:10:12.964Z,17.70
2022-08-16T16:12:53.938Z,16.05
2022-08-16T16:15:26.562Z,16.38
2022-08-16T16:17:56.581Z,14.63
2022-08-16T16:20:27.133Z,14.63
2022-08-16T16:23:09.968Z,15.97
2022-08-16T16:25:38.735Z,15.65
2022-08-16T16:28:05.214Z,16.05
2022-08-16T16:30:44.853Z,15.88
2022-08-16T16:33:20.507Z,13.70
2022-08-16T16:35:48.346Z,13.98
2022-08-16T16:38:30.505Z,13.63
2022-08-16T16:40:58.830Z,13.18
2022-08-16T16:43:31.654Z,13.77
2022-08-16T16:46:00.598Z,12.48
2022-08-16T16:48:34.460Z,12.98
2022-08-16T16:51:09.119Z,11.68
2022-08-16T16:53:40.858Z,11.93
2022-08-16T16:56:19.334Z,12.88
2022-08-16T16:58:56.270Z,12.25
2022-08-16T17:01:41.322Z,12.25
2022-08-16T17:04:19.773Z,13.05
2022-08-16T17:06:53.680Z,12.52
2022-08-16T17:09:24.067Z,12.27
2022-08-16T17:11:55.425Z,12.13
2022-08-16T17:14:32.964Z,13.57
2022-08-16T17:17:09.130Z,12.50
2022-08-16T17:19:41.837Z,13.55
2022-08-16T17:22:17.065Z,11.60
2022-08-16T17:24:52.461Z,11.65
2022-08-16T17:27:33.176Z,12.32
2022-08-16T17:30:17.578Z,11.35
2022-08-16T17:32:50.526Z,10.90
2022-08-16T17:35:33.675Z,11.25
2022-08-16T17:38:05.908Z,10.23
2022-08-16T17:40:47.091Z,9.70
2022-08-16T17:43:33.786Z,9.57
2022-08-16T17:46:00.901Z,9.40
2022-08-16T17:48:30.655Z,9.13
2022-08-16T17:50:58.973Z,9.18
2022-08-16T17:53:26.113Z,9.88
2022-08-16T17:55:54.400Z,10.18
2022-08-16T17:58:23.399Z,10.93
2022-08-16T18:00:56.748Z,12.05
2022-08-16T18:04:08.201Z,12.20
2022-08-16T18:06:23.601Z,12.07
2022-08-16T18:08:55.851Z,12.15
2022-08-16T18:11:27.689Z,15.20
2022-08-16T18:13:55.088Z,12.77
2022-08-16T18:16:21.697Z,12.98
2022-08-16T18:18:48.153Z,12.68
2022-08-16T18:21:33.780Z,13.45
2022-08-16T18:24:00.613Z,15.45
2022-08-16T18:26:27.169Z,14.80
2022-08-16T18:28:53.608Z,14.80
2022-08-16T18:31:20.079Z,13.38
2022-08-16T18:33:46.516Z,13.88
2022-08-16T18:36:20.473Z,15.40
2022-08-16T18:38:48.542Z,13.82
2022-08-16T18:41:15.070Z,14.85
2022-08-16T18:43:55.497Z,14.88
2022-08-16T18:46:27.943Z,14.07
2022-08-16T18:48:54.386Z,14.07
2022-08-16T18:51:24.964Z,15.07
2022-08-16T18:53:52.037Z,14.75
2022-08-16T18:56:18.517Z,17.38
2022-08-16T18:58:44.974Z,16.08
2022-08-16T19:01:11.492Z,15.25
2022-08-16T19:03:37.982Z,17.65
2022-08-16T19:06:11.418Z,18.63
2022-08-16T19:08:41.381Z,18.00
2022-08-16T19:11:11.419Z,17.15
2022-08-16T19:13:40.222Z,19.33
2022-08-16T19:16:07.343Z,18.15
2022-08-16T19:18:36.613Z,19.30
2022-08-16T19:21:05.004Z,19.08
2022-08-16T19:23:34.328Z,17.80
2022-08-16T19:26:06.798Z,17.60
2022-08-16T19:28:51.452Z,19.35
2022-08-16T19:31:29.077Z,17.58
2022-08-16T19:33:57.000Z,15.80
2022-08-16T19:36:36.967Z,16.42
2022-08-16T19:39:10.979Z,16.25
2022-08-16T19:41:40.443Z,14.88
2022-08-16T19:44:07.037Z,15.15
2022-08-16T19:46:34.941Z,15.85
2022-08-16T19:49:01.851Z,16.27
2022-08-16T19:51:28.558Z,15.20
2022-08-16T19:53:55.087Z,14.93
2022-08-16T19:56:23.663Z,14.23
2022-08-16T19:59:16.386Z,14.82
2022-08-16T20:01:41.874Z,14.63
2022-08-16T20:04:11.978Z,13.80
2022-08-16T20:06:39.318Z,14.45
2022-08-16T20:09:06.730Z,14.30
2022-08-16T20:11:35.055Z,13.40
2022-08-16T20:14:02.163Z,14.27
2022-08-16T20:16:28.614Z,14.38
2022-08-16T20:18:55.099Z,12.98
2022-08-16T20:21:21.632Z,12.90
2022-08-16T20:23:48.138Z,13.75
2022-08-16T20:26:14.562Z,13.38
2022-08-16T20:28:53.552Z,12.70
2022-08-16T20:31:25.334Z,13.50
2022-08-16T20:33:53.185Z,13.27
2022-08-16T20:36:19.775Z,13.30
2022-08-16T20:38:47.385Z,13.90
2022-08-16T20:41:15.682Z,13.63
2022-08-16T20:43:42.334Z,13.30
2022-08-16T20:46:09.098Z,12.38
2022-08-16T20:48:35.695Z,12.77
2022-08-16T20:51:02.176Z,13.88
2022-08-16T20:53:28.686Z,12.70
2022-08-16T20:55:55.173Z,13.32
2022-08-16T20:58:21.605Z,13.30
2022-08-16T21:00:48.284Z,13.20
2022-08-16T21:03:14.938Z,14.10
2022-08-16T21:05:41.707Z,14.40
2022-08-16T21:08:29.417Z,13.70
2022-08-16T21:10:56.318Z,13.95
2022-08-16T21:13:25.772Z,14.13
2022-08-16T21:15:52.866Z,14.27
2022-08-16T21:18:19.347Z,13.48
2022-08-16T21:20:45.894Z,14.13
2022-08-16T21:23:12.311Z,13.25
2022-08-16T21:25:39.617Z,13.40
2022-08-16T21:28:38.677Z,14.43
2022-08-16T21:31:10.766Z,15.70
2022-08-16T21:33:37.270Z,13.98
2022-08-16T21:36:04.177Z,15.38
2022-08-16T21:38:31.103Z,14.80
2022-08-16T21:40:59.348Z,14.40
2022-08-16T21:43:28.643Z,15.00
2022-08-16T21:45:55.681Z,15.05
2022-08-16T21:48:35.239Z,15.10
2022-08-16T21:51:05.007Z,15.85
2022-08-16T21:53:31.534Z,16.55
2022-08-16T21:55:59.188Z,16.58
2022-08-16T21:58:25.796Z,16.75
2022-08-16T22:00:53.036Z,16.27
2022-08-16T22:03:21.041Z,16.65
2022-08-16T22:06:11.643Z,15.90
2022-08-16T22:08:35.788Z,15.88
2022-08-16T22:11:17.378Z,16.10
2022-08-16T22:13:44.481Z,16.63
2022-08-16T22:16:26.365Z,16.88
2022-08-16T22:18:52.980Z,17.63
2022-08-16T22:21:20.224Z,17.50
2022-08-16T22:23:56.633Z,18.35
2022-08-16T22:26:36.812Z,18.52
2022-08-16T22:29:11.374Z,17.30
2022-08-16T22:31:39.337Z,18.03
2022-08-16T22:34:07.696Z,17.45
2022-08-16T22:36:34.743Z,18.13
2022-08-16T22:39:05.141Z,17.98
2022-08-16T22:41:33.545Z,17.50
2022-08-16T22:44:01.958Z,18.42
2022-08-16T22:46:29.100Z,18.58
2022-08-16T22:48:56.231Z,19.27
2022-08-16T22:51:24.865Z,18.63
2022-08-16T22:53:52.798Z,18.60
2022-08-16T22:56:19.824Z,17.40
2022-08-16T22:58:46.838Z,17.92
2022-08-16T23:01:15.482Z,18.30
2022-08-16T23:03:42.984Z,16.45
2022-08-16T23:06:11.816Z,17.75
2022-08-16T23:08:41.213Z,17.98
2022-08-16T23:11:22.317Z,18.80
2022-08-16T23:13:54.648Z,18.33
2022-08-16T23:16:34.482Z,18.48
2022-08-16T23:19:07.906Z,19.00
2022-08-16T23:21:36.995Z,18.52
2022-08-16T23:24:04.072Z,17.20
2022-08-16T23:26:44.301Z,18.23
2022-08-16T23:29:21.966Z,18.52
2022-08-16T23:31:53.481Z,19.90
2022-08-16T23:34:21.561Z,18.60
2022-08-16T23:36:48.102Z,18.48
2022-08-16T23:39:14.594Z,18.38
2022-08-16T23:41:41.067Z,18.27
2022-08-16T23:44:57.029Z,18.13
2022-08-16T23:46:53.994Z,19.67
2022-08-16T23:49:56.077Z,19.08
2022-08-16T23:52:10.970Z,18.77
2022-08-16T23:54:37.437Z,19.35
2022-08-16T23:57:04.170Z,17.75
2022-08-16T23:59:31.748Z,20.38
